createdAt,value
2022-08-17T00:07:53.559Z,0
2022-08-17T00:17:30.660Z,0
2022-08-17T00:27:07.501Z,0
2022-08-17T00:36:44.634Z,0
2022-08-17T00:46:22.057Z,0
2022-08-17T00:55:58.978Z,0
2022-08-17T01:05:36.142Z,0
2022-08-17T01:15:13.093Z,0
2022-08-17T01:24:50.154Z,0
2022-08-17T01:34:32.789Z,0
2022-08-17T01:44:03.462Z,0
2022-08-17T01:53:40.124Z,0
2022-08-17T02:03:17.332Z,0
2022-08-17T02:32:07.880Z,0
2022-08-17T02:41:44.774Z,0
2022-08-17T02:51:21.829Z,0
2022-08-17T03:00:59.047Z,0
2022-08-17T03:10:36.286Z,0
2022-08-17T03:29:51.364Z,0.83
2022-08-17T03:39:28.913Z,2.5
2022-08-17T03:49:05.995Z,15
2022-08-17T04:08:20.297Z,110
2022-08-17T04:17:57.277Z,214.17
2022-08-17T04:27:35.077Z,346.67
2022-08-17T04:46:50.670Z,508.33
2022-08-17T04:56:28.289Z,610.83
2022-08-17T05:06:05.886Z,641.67
2022-08-17T05:15:44.778Z,665
2022-08-17T05:25:20.799Z,310
2022-08-17T06:03:51.852Z,1135
2022-08-17T06:13:29.570Z,1190
2022-08-17T06:23:07.523Z,1235.83
2022-08-17T06:32:45.870Z,1247.5
2022-08-17T06:42:54.388Z,1436.67
2022-08-17T06:52:01.760Z,1635
2022-08-17T07:01:40.144Z,1685.83
2022-08-17T07:11:18.164Z,1331.67
2022-08-17T07:30:37.062Z,1286.67
2022-08-17T07:40:14.979Z,1265.83
2022-08-17T07:49:49.273Z,1260
2022-08-17T07:59:28.730Z,1436.67
2022-08-17T08:18:53.337Z,1365.83
2022-08-17T08:28:23.125Z,1325.83
2022-08-17T08:38:01.132Z,1402.5
2022-08-17T08:57:25.352Z,1538.33
2022-08-17T09:06:58.195Z,1686.67
2022-08-17T09:16:37.325Z,1830
2022-08-17T09:26:17.358Z,1945.83
2022-08-17T09:35:55.822Z,1938.33
2022-08-17T09:45:34.382Z,4465
2022-08-17T09:55:32.099Z,16939.17
2022-08-17T10:05:20.014Z,15451.67
2022-08-17T10:25:02.226Z,18032.5
2022-08-17T10:34:27.453Z,22579.17
2022-08-17T10:44:36.821Z,22445
2022-08-17T10:53:47.073Z,22943.33
2022-08-17T11:03:20.360Z,16960.83
2022-08-17T11:13:00.801Z,24175
2022-08-17T11:22:41.834Z,18795
2022-08-17T11:41:58.140Z,20441.67
2022-08-17T11:51:40.946Z,21070
2022-08-17T12:01:19.486Z,22652.5
2022-08-17T12:20:33.507Z,21530.83
2022-08-17T12:30:21.922Z,22869.17
2022-08-17T12:49:46.273Z,20636.67
2022-08-17T12:59:30.074Z,18710
2022-08-17T13:09:03.519Z,21775.83
2022-08-17T13:18:40.282Z,15562.5
2022-08-17T13:27:57.148Z,3334.17
2022-08-17T13:37:23.378Z,1870.83
2022-08-17T13:56:31.822Z,2342.5
2022-08-17T14:15:54.684Z,4480
2022-08-17T14:25:25.154Z,5936.67
2022-08-17T14:35:15.838Z,11150
2022-08-17T14:44:53.195Z,7495
2022-08-17T14:54:43.790Z,4286.67
2022-08-17T15:04:04.620Z,2679.17
2022-08-17T15:13:52.110Z,2520.83
2022-08-17T15:23:19.812Z,8309.17
2022-08-17T15:32:58.056Z,3535.83
2022-08-17T15:42:33.761Z,2369.17
2022-08-17T15:52:08.470Z,1685
2022-08-17T16:01:51.809Z,1570.83
2022-08-17T16:11:21.836Z,1263.33
2022-08-17T16:20:59.111Z,1297.5
2022-08-17T16:30:36.835Z,1792.5
2022-08-17T16:40:14.627Z,1496.67
2022-08-17T16:49:50.705Z,1062.5
2022-08-17T16:59:31.779Z,1017.5
2022-08-17T17:09:04.643Z,985
2022-08-17T17:18:42.007Z,809.17
2022-08-17T17:37:55.789Z,394.17
2022-08-17T17:47:32.859Z,232.5
2022-08-17T17:57:10.112Z,155.83
2022-08-17T18:06:47.100Z,152.5
2022-08-17T18:16:24.518Z,115.83
2022-08-17T18:26:01.123Z,61.67
2022-08-17T18:35:38.060Z,33.33
2022-08-17T18:45:14.861Z,9.17
2022-08-17T18:54:51.956Z,2.5
2022-08-17T19:04:28.474Z,0.83
2022-08-17T19:14:04.887Z,0
2022-08-17T19:23:41.969Z,0
2022-08-17T19:33:18.731Z,0
2022-08-17T19:42:55.681Z,0
2022-08-17T19:52:32.437Z,0
2022-08-17T20:02:09.154Z,0
2022-08-17T20:21:22.485Z,0
2022-08-17T20:30:59.507Z,0
2022-08-17T20:40:36.869Z,0
2022-08-17T20:50:14.081Z,0
2022-08-17T20:59:51.049Z,0
2022-08-17T21:09:28.141Z,0
2022-08-17T21:19:05.735Z,0
2022-08-17T21:28:59.806Z,0
2022-08-17T21:38:19.812Z,0
2022-08-17T21:47:56.984Z,0
2022-08-17T21:57:34.006Z,0
2022-08-17T22:07:10.857Z,0
2022-08-17T22:16:47.985Z,0
2022-08-17T22:26:25.263Z,0
2022-08-17T22:36:02.316Z,0
2022-08-17T22:45:39.542Z,0
2022-08-17T22:55:16.285Z,0
2022-08-17T23:14:30.335Z,0
2022-08-17T23:24:07.671Z,0
2022-08-17T23:33:44.837Z,0
2022-08-17T23:43:24.957Z,0
2022-08-17T23:52:59.437Z,0
